Flugplatz Büllingen (EBBN)

Hier findest Du alle Informationen zum Flugplatz Büllingen (EBBN).

Informationen für Piloten zum Flugplatz Büllingen

Hier findest Du alle relevanten Informationen, die Du als Pilot benötigst, um Büllingen anzufliegen.

Flugplatz: Büllingen ICAO-Code: EBBN
Frequenz Turm: 118.980 Mhz GAFOR Gebiet: 37
Frequenz Ground: 118.980 Mhz Mogas: nein
Platzrunde: N 2700 ft Landegebühr: 0 €
Platzhöhe: 2066 ft Sunrise: 03:27 Uhr UTC
Pisten: 12/30 - 290 m x 50 m, GRAS Sunset: 19:37 Uhr UTC

Flugwetter am Flugplatz Büllingen

Die METAR Information stammen aus EDDK (79.10 km entfernt).

METAR Code:
2024/05/24 07:50
EDDK 240750Z AUTO 32006KT 8000 -RA SCT003 13/13 Q1018 TEMPO RA BKN006

Flugschulen am Flugplatz Büllingen

Am Flugplatz Büllingen gibt es leider keine Flugschule.

Benachbarte Flugplätze und Flugschulen

Es gibt 6 weitere Flugplätze in einem Umkreis von 50 km um den Flugplatz Büllingen.

Jetzt anmelden

Passwort vergessen

Umfrage Archiv

Wie häufig haltet Ihr die Halbkreisflugregel ein?

Eher häufig!
35.5 %
Immer!
30.9 %
Hin und wieder!
16.8 %
Nie!
9.4 %
Eher selten!
7.4 %
Stimmen: 256 | Diskussion
Anzeige: Roland Aircraft
Statistik Alle Mitglieder

Aktuell sind 21 Besucher online, davon 2 Mitglieder und 19 Gäste.


Mitglieder online:
HansOtto  raller 

Anzeige: EasyVFR